createdAt,value
2017-11-08T00:00:15.931Z,101628.66
2017-11-08T00:02:43.514Z,101635.94
2017-11-08T00:05:11.091Z,101636.71
2017-11-08T00:07:38.666Z,101632.92
2017-11-08T00:10:06.253Z,101625.71
2017-11-08T00:12:33.835Z,101627.32
2017-11-08T00:15:01.410Z,101628.33
2017-11-08T00:17:28.977Z,101622.33
2017-11-08T00:19:58.351Z,101621.69
2017-11-08T00:22:25.965Z,101618.51
2017-11-08T00:24:53.539Z,101622.41
2017-11-08T00:27:21.110Z,101621.98
2017-11-08T00:29:48.682Z,101619.61
2017-11-08T00:32:16.266Z,101620.80
2017-11-08T00:34:43.833Z,101610.25
2017-11-08T00:37:11.402Z,101618.72
2017-11-08T00:39:39.006Z,101602.34
2017-11-08T00:42:06.578Z,101607.02
2017-11-08T00:44:34.153Z,101613.83
2017-11-08T00:47:01.765Z,101606.91
2017-11-08T00:49:29.334Z,101607.38
2017-11-08T00:51:56.947Z,101608.55
2017-11-08T00:54:24.519Z,101611.15
2017-11-08T00:56:52.090Z,101613.59
2017-11-08T00:59:19.995Z,101606.90
2017-11-08T01:01:47.562Z,101610.81
2017-11-08T01:04:15.146Z,101612.80
2017-11-08T01:06:42.728Z,101611.63
2017-11-08T01:09:10.342Z,101604.03
2017-11-08T01:11:38.006Z,101600.55
2017-11-08T01:14:05.582Z,101599.55
2017-11-08T01:16:33.167Z,101599.65
2017-11-08T01:19:00.747Z,101585.55
2017-11-08T01:21:28.327Z,101584.12
2017-11-08T01:23:55.894Z,101583.77
2017-11-08T01:26:23.498Z,101574.64
2017-11-08T01:28:51.106Z,101573.89
2017-11-08T01:31:18.690Z,101578.22
2017-11-08T01:33:46.516Z,101581.65
2017-11-08T01:36:14.089Z,101579.78
2017-11-08T01:38:42.637Z,101582.52
2017-11-08T01:41:15.793Z,101576.92
2017-11-08T01:43:43.396Z,101568.04
2017-11-08T01:46:10.983Z,101569.77
2017-11-08T01:48:38.590Z,101567.17
2017-11-08T01:51:06.166Z,101565.73
2017-11-08T01:53:33.747Z,101563.81
2017-11-08T01:56:01.323Z,101560.53
2017-11-08T01:58:28.897Z,101559.47
2017-11-08T02:00:56.477Z,101551.97
2017-11-08T02:03:24.047Z,101551.89
2017-11-08T02:05:51.655Z,101551.17
2017-11-08T02:08:19.231Z,101554.67
2017-11-08T02:10:46.804Z,101553.17
2017-11-08T02:13:14.381Z,101556.21
2017-11-08T02:15:41.955Z,101562.63
2017-11-08T02:18:15.282Z,101565.61
2017-11-08T02:20:42.858Z,101558.45
2017-11-08T02:23:10.435Z,101551.73
2017-11-08T02:25:38.223Z,101548.44
2017-11-08T02:28:05.831Z,101549.11
2017-11-08T02:30:33.411Z,101553.91
2017-11-08T02:33:00.986Z,101559.86
2017-11-08T02:35:28.585Z,101554.26
2017-11-08T02:37:56.155Z,101549.03
2017-11-08T02:40:23.734Z,101545.78
2017-11-08T02:42:51.315Z,101542.53
2017-11-08T02:45:18.890Z,101540.96
2017-11-08T02:47:46.465Z,101546.66
2017-11-08T02:50:14.034Z,101544.53
2017-11-08T02:52:41.610Z,101543.44
2017-11-08T02:55:14.192Z,101544.84
2017-11-08T02:57:41.774Z,101545.81
2017-11-08T03:00:09.347Z,101543.44
2017-11-08T03:02:52.139Z,101542.21
2017-11-08T03:05:20.621Z,101533.39
2017-11-08T03:07:48.191Z,101536.52
2017-11-08T03:10:15.812Z,101536.84
2017-11-08T03:12:43.381Z,101534.69
2017-11-08T03:15:10.946Z,101539.84
2017-11-08T03:17:38.609Z,101551.55
2017-11-08T03:20:06.199Z,101552.30
2017-11-08T03:22:33.811Z,101559.92
2017-11-08T03:25:01.384Z,101554.43
2017-11-08T03:27:28.995Z,101554.58
2017-11-08T03:29:56.578Z,101562.91
2017-11-08T03:32:24.185Z,101561.17
2017-11-08T03:34:51.793Z,101566.91
2017-11-08T03:37:19.378Z,101560.51
2017-11-08T03:39:47.003Z,101554.98
2017-11-08T03:42:14.579Z,101553.59
2017-11-08T03:44:42.154Z,101552.99
2017-11-08T03:47:09.778Z,101552.37
2017-11-08T03:49:37.685Z,101545.48
2017-11-08T03:52:05.254Z,101553.48
2017-11-08T03:54:33.146Z,101543.84
2017-11-08T03:57:00.775Z,101540.38
2017-11-08T03:59:28.370Z,101545.26
2017-11-08T04:01:55.970Z,101547.80
2017-11-08T04:04:23.543Z,101546.05
2017-11-08T04:06:51.162Z,101549.55
2017-11-08T04:09:18.726Z,101556.27
2017-11-08T04:11:46.301Z,101547.48
2017-11-08T04:14:13.881Z,101550.20
2017-11-08T04:16:41.484Z,101553.28
2017-11-08T04:19:09.063Z,101546.91
2017-11-08T04:21:36.669Z,101551.36
2017-11-08T04:24:04.237Z,101547.32
2017-11-08T04:26:31.846Z,101550.77
2017-11-08T04:28:59.434Z,101555.45
2017-11-08T04:31:27.005Z,101558.70
2017-11-08T04:33:54.578Z,101557.12
2017-11-08T04:36:22.152Z,101550.87
2017-11-08T04:38:50.103Z,101548.25
2017-11-08T04:41:17.671Z,101551.84
2017-11-08T04:43:45.240Z,101548.97
2017-11-08T04:46:12.806Z,101553.44
2017-11-08T04:48:40.384Z,101554.95
2017-11-08T04:51:07.953Z,101553.89
2017-11-08T04:53:35.533Z,101548.13
2017-11-08T04:56:03.142Z,101545.80
2017-11-08T04:58:30.713Z,101554.77
2017-11-08T05:00:58.294Z,101558.23
2017-11-08T05:03:25.905Z,101554.29
2017-11-08T05:05:53.507Z,101562.55
2017-11-08T05:08:21.086Z,101560.11
2017-11-08T05:10:48.655Z,101553.95
2017-11-08T05:13:16.223Z,101562.89
2017-11-08T05:15:43.799Z,101559.05
2017-11-08T05:18:11.379Z,101553.86
2017-11-08T05:20:38.986Z,101564.80
2017-11-08T05:23:06.560Z,101566.41
2017-11-08T05:25:34.131Z,101562.41
2017-11-08T05:28:01.701Z,101560.56
2017-11-08T05:30:29.270Z,101567.73
2017-11-08T05:32:56.877Z,101577.16
2017-11-08T05:35:24.446Z,101585.75
2017-11-08T05:37:52.013Z,101592.58
2017-11-08T05:40:20.230Z,101595.66
2017-11-08T05:42:47.806Z,101603.02
2017-11-08T05:45:15.430Z,101609.20
2017-11-08T05:47:43.005Z,101612.98
2017-11-08T05:50:10.579Z,101619.70
2017-11-08T05:52:38.310Z,101625.86
2017-11-08T05:55:05.918Z,101629.08
2017-11-08T05:57:33.486Z,101627.81
2017-11-08T06:00:01.089Z,101627.03
2017-11-08T06:02:28.663Z,101634.50
2017-11-08T06:04:56.230Z,101640.16
2017-11-08T06:07:23.817Z,101626.07
2017-11-08T06:09:51.392Z,101618.20
2017-11-08T06:12:18.966Z,101631.39
2017-11-08T06:14:46.544Z,101629.43
2017-11-08T06:17:14.150Z,101620.55
2017-11-08T06:19:41.773Z,101621.03
2017-11-08T06:22:09.341Z,101628.38
2017-11-08T06:24:36.951Z,101618.53
2017-11-08T06:27:04.517Z,101620.48
2017-11-08T06:29:32.093Z,101630.03
2017-11-08T06:31:59.681Z,101632.66
2017-11-08T06:34:27.274Z,101629.11
2017-11-08T06:36:54.940Z,101627.47
2017-11-08T06:39:22.519Z,101636.27
2017-11-08T06:41:50.089Z,101635.45
2017-11-08T06:44:17.694Z,101634.23
2017-11-08T06:46:45.301Z,101646.07
2017-11-08T06:49:12.880Z,101645.88
2017-11-08T06:51:40.460Z,101652.86
2017-11-08T06:54:08.034Z,101650.62
2017-11-08T06:56:35.606Z,101650.87
2017-11-08T06:59:03.908Z,101653.05
2017-11-08T07:01:31.503Z,101651.92
2017-11-08T07:04:02.185Z,101658.86
2017-11-08T07:06:29.793Z,101661.41
2017-11-08T07:08:57.390Z,101662.06
2017-11-08T07:11:24.967Z,101654.33
2017-11-08T07:13:52.594Z,101664.92
2017-11-08T07:16:20.178Z,101653.91
2017-11-08T07:18:47.750Z,101654.73
2017-11-08T07:21:15.325Z,101655.39
2017-11-08T07:23:42.898Z,101647.50
2017-11-08T07:26:10.474Z,101641.75
2017-11-08T07:28:38.046Z,101642.45
2017-11-08T07:31:05.613Z,101637.37
2017-11-08T07:33:33.180Z,101635.49
2017-11-08T07:36:00.798Z,101629.56
2017-11-08T07:38:28.379Z,101629.20
2017-11-08T07:40:55.938Z,101631.52
2017-11-08T07:43:23.511Z,101627.89
2017-11-08T07:45:51.078Z,101628.39
2017-11-08T07:48:18.642Z,101622.43
2017-11-08T07:50:46.206Z,101621.03
2017-11-08T07:53:13.811Z,101618.50
2017-11-08T07:55:46.336Z,101631.92
2017-11-08T07:58:13.936Z,101641.61
2017-11-08T08:00:41.511Z,101640.47
2017-11-08T08:03:09.105Z,101647.20
2017-11-08T08:05:36.672Z,101651.83
2017-11-08T08:08:04.238Z,101642.67
2017-11-08T08:10:34.774Z,101644.01
2017-11-08T08:13:04.131Z,101644.38
2017-11-08T08:15:31.700Z,101650.95
2017-11-08T08:17:59.274Z,101653.48
2017-11-08T08:20:26.886Z,101652.41
2017-11-08T08:22:54.447Z,101648.41
2017-11-08T08:25:22.014Z,101649.31
2017-11-08T08:27:50.509Z,101656.73
2017-11-08T08:30:18.115Z,101657.06
2017-11-08T08:32:45.690Z,101651.01
2017-11-08T08:35:13.258Z,101659.44
2017-11-08T08:37:40.833Z,101657.27
2017-11-08T08:40:08.394Z,101651.27
2017-11-08T08:42:35.955Z,101651.29
2017-11-08T08:45:03.523Z,101649.44
2017-11-08T08:47:31.091Z,101644.92
2017-11-08T08:49:58.710Z,101654.30
2017-11-08T08:52:26.275Z,101648.45
2017-11-08T08:54:53.842Z,101647.11
2017-11-08T08:57:21.415Z,101641.11
2017-11-08T08:59:49.007Z,101644.36
2017-11-08T09:02:19.407Z,101632.85
2017-11-08T09:04:47.018Z,101628.17
2017-11-08T09:07:14.594Z,101638.26
2017-11-08T09:09:42.167Z,101638.08
2017-11-08T09:12:09.736Z,101639.63
2017-11-08T09:14:37.309Z,101641.27
2017-11-08T09:17:04.873Z,101636.52
2017-11-08T09:19:33.359Z,101643.26
2017-11-08T09:22:00.934Z,101639.92
2017-11-08T09:24:35.073Z,101641.48
2017-11-08T09:27:04.434Z,101640.97
2017-11-08T09:29:34.801Z,101642.75
2017-11-08T09:32:02.377Z,101635.81
2017-11-08T09:34:29.983Z,101634.69
2017-11-08T09:36:57.549Z,101640.42
2017-11-08T09:39:25.145Z,101635.77
2017-11-08T09:41:55.302Z,101637.20
2017-11-08T09:44:22.874Z,101621.29
2017-11-08T09:46:50.451Z,101613.63
2017-11-08T09:49:18.073Z,101613.58
2017-11-08T09:51:45.691Z,101612.83
2017-11-08T09:54:13.254Z,101606.89
2017-11-08T09:56:40.814Z,101601.70
2017-11-08T09:59:08.416Z,101601.67
2017-11-08T10:01:41.823Z,101601.27
2017-11-08T10:04:09.468Z,101607.13
2017-11-08T10:06:39.962Z,101601.43
2017-11-08T10:09:07.650Z,101597.05
2017-11-08T10:11:39.130Z,101596.50
2017-11-08T10:14:06.708Z,101595.61
2017-11-08T10:16:34.290Z,101599.37
2017-11-08T10:19:02.786Z,101597.83
2017-11-08T10:21:30.349Z,101598.09
2017-11-08T10:23:57.933Z,101600.24
2017-11-08T10:26:25.703Z,101605.78
2017-11-08T10:28:53.338Z,101606.31
2017-11-08T10:31:20.899Z,101600.62
2017-11-08T10:33:48.599Z,101599.45
2017-11-08T10:36:16.173Z,101600.39
2017-11-08T10:38:43.858Z,101600.98
2017-11-08T10:41:11.438Z,101604.84
2017-11-08T10:43:38.979Z,101602.95
2017-11-08T10:46:06.552Z,101598.31
2017-11-08T10:48:34.125Z,101601.31
2017-11-08T10:51:01.699Z,101605.66
2017-11-08T10:53:30.318Z,101608.56
2017-11-08T10:55:57.886Z,101609.94
2017-11-08T10:58:25.464Z,101608.14
2017-11-08T11:00:53.064Z,101613.13
2017-11-08T11:03:26.693Z,101605.91
2017-11-08T11:05:54.307Z,101612.95
2017-11-08T11:08:21.927Z,101616.74
2017-11-08T11:10:49.499Z,101614.36
2017-11-08T11:13:17.167Z,101617.31
2017-11-08T11:15:44.792Z,101615.95
2017-11-08T11:18:12.362Z,101612.72
2017-11-08T11:20:40.891Z,101618.56
2017-11-08T11:23:08.463Z,101617.80
2017-11-08T11:25:37.975Z,101629.25
2017-11-08T11:28:05.557Z,101629.46
2017-11-08T11:30:34.020Z,101627.66
2017-11-08T11:33:01.616Z,101621.27
2017-11-08T11:35:29.192Z,101620.59
2017-11-08T11:37:56.759Z,101625.83
2017-11-08T11:40:24.332Z,101625.86
2017-11-08T11:42:51.910Z,101625.80
2017-11-08T11:45:19.542Z,101621.77
2017-11-08T11:47:49.492Z,101619.25
2017-11-08T11:50:17.058Z,101620.82
2017-11-08T11:52:44.645Z,101622.16
2017-11-08T11:55:12.221Z,101624.91
2017-11-08T11:57:39.847Z,101627.45
2017-11-08T12:00:07.412Z,101617.32
2017-11-08T12:02:34.998Z,101621.38
2017-11-08T12:05:03.564Z,101618.98
2017-11-08T12:07:33.498Z,101616.73
2017-11-08T12:10:03.035Z,101606.85
2017-11-08T12:12:30.697Z,101615.63
2017-11-08T12:14:58.279Z,101614.27
2017-11-08T12:17:25.858Z,101607.47
2017-11-08T12:19:53.476Z,101611.32
2017-11-08T12:22:21.060Z,101614.84
2017-11-08T12:24:49.062Z,101610.95
2017-11-08T12:27:20.454Z,101612.55
2017-11-08T12:29:48.031Z,101610.92
2017-11-08T12:32:15.603Z,101608.77
2017-11-08T12:34:43.180Z,101615.38
2017-11-08T12:37:10.783Z,101615.01
2017-11-08T12:39:38.359Z,101612.92
2017-11-08T12:42:11.491Z,101616.69
2017-11-08T12:44:44.682Z,101621.88
2017-11-08T12:47:12.265Z,101623.52
2017-11-08T12:49:39.847Z,101617.97
2017-11-08T12:52:07.435Z,101624.92
2017-11-08T12:54:35.052Z,101624.94
2017-11-08T12:57:02.701Z,101624.28
2017-11-08T12:59:30.374Z,101629.34
2017-11-08T13:01:57.995Z,101626.63
2017-11-08T13:04:25.679Z,101630.68
2017-11-08T13:06:53.539Z,101631.99
2017-11-08T13:09:21.139Z,101630.88
2017-11-08T13:11:48.804Z,101626.91
2017-11-08T13:14:16.399Z,101638.00
2017-11-08T13:16:43.970Z,101630.84
2017-11-08T13:19:11.541Z,101632.25
2017-11-08T13:21:39.139Z,101627.02
2017-11-08T13:24:06.708Z,101621.70
2017-11-08T13:26:34.320Z,101628.83
2017-11-08T13:29:01.907Z,101633.53
2017-11-08T13:31:29.492Z,101636.17
2017-11-08T13:33:57.092Z,101633.13
2017-11-08T13:36:24.805Z,101637.95
2017-11-08T13:38:56.069Z,101638.52
2017-11-08T13:41:23.842Z,101646.27
2017-11-08T13:43:51.446Z,101637.68
2017-11-08T13:46:19.151Z,101641.44
2017-11-08T13:48:46.836Z,101650.00
2017-11-08T13:51:15.478Z,101654.42
2017-11-08T13:53:45.080Z,101642.00
2017-11-08T13:56:13.839Z,101633.54
2017-11-08T13:58:41.441Z,101638.66
2017-11-08T14:01:09.287Z,101641.33
2017-11-08T14:03:37.259Z,101634.82
2017-11-08T14:06:04.844Z,101639.71
2017-11-08T14:08:32.455Z,101622.62
2017-11-08T14:11:00.030Z,101625.59
2017-11-08T14:13:27.603Z,101629.33
2017-11-08T14:15:55.179Z,101642.59
2017-11-08T14:18:22.752Z,101639.71
2017-11-08T14:20:50.448Z,101646.20
2017-11-08T14:23:18.047Z,101644.48
2017-11-08T14:25:45.623Z,101651.28
2017-11-08T14:28:13.199Z,101647.55
2017-11-08T14:30:40.814Z,101647.00
2017-11-08T14:33:08.388Z,101655.34
2017-11-08T14:35:38.959Z,101654.04
2017-11-08T14:38:06.532Z,101658.47
2017-11-08T14:40:34.101Z,101661.92
2017-11-08T14:43:01.907Z,101659.16
2017-11-08T14:45:29.483Z,101655.44
2017-11-08T14:47:57.055Z,101659.98
2017-11-08T14:50:24.667Z,101665.70
2017-11-08T14:55:51.227Z,101664.95
2017-11-08T14:58:18.795Z,101675.39
2017-11-08T15:00:46.367Z,101662.63
2017-11-08T15:03:13.966Z,101667.42
2017-11-08T15:05:41.531Z,101663.05
2017-11-08T15:08:09.151Z,101669.36
2017-11-08T15:10:36.744Z,101670.50
2017-11-08T15:13:04.315Z,101665.02
2017-11-08T15:15:31.893Z,101661.80
2017-11-08T15:17:59.463Z,101662.20
2017-11-08T15:20:28.870Z,101662.72
2017-11-08T15:22:56.453Z,101657.98
2017-11-08T15:25:24.101Z,101662.12
2017-11-08T15:27:51.691Z,101658.13
2017-11-08T15:30:24.863Z,101669.81
2017-11-08T15:32:52.431Z,101665.73
2017-11-08T15:35:20.003Z,101666.73
2017-11-08T15:37:47.667Z,101664.02
2017-11-08T15:40:33.072Z,101665.11
2017-11-08T15:43:00.746Z,101664.13
2017-11-08T15:45:28.348Z,101667.95
2017-11-08T15:47:55.954Z,101662.84
2017-11-08T15:50:23.522Z,101670.22
2017-11-08T15:52:51.407Z,101664.80
2017-11-08T15:55:19.022Z,101665.34
2017-11-08T15:57:46.588Z,101670.47
2017-11-08T16:00:14.246Z,101669.16
2017-11-08T16:02:43.719Z,101671.74
2017-11-08T16:05:11.293Z,101673.81
2017-11-08T16:07:38.858Z,101672.20
2017-11-08T16:10:06.475Z,101669.95
2017-11-08T16:12:34.299Z,101680.38
2017-11-08T16:15:02.940Z,101677.97
2017-11-08T16:17:33.495Z,101673.33
2017-11-08T16:20:01.309Z,101670.92
2017-11-08T16:22:28.879Z,101677.89
2017-11-08T16:24:56.453Z,101672.42
2017-11-08T16:27:24.067Z,101673.56
2017-11-08T16:29:51.638Z,101672.02
2017-11-08T16:32:20.032Z,101676.20
2017-11-08T16:35:02.547Z,101677.41
2017-11-08T16:37:30.160Z,101680.89
2017-11-08T16:39:57.800Z,101678.20
2017-11-08T16:42:25.500Z,101681.01
2017-11-08T16:44:53.340Z,101676.47
2017-11-08T16:47:21.044Z,101670.59
2017-11-08T16:49:48.623Z,101675.13
2017-11-08T16:52:16.517Z,101672.30
2017-11-08T16:54:44.088Z,101678.34
2017-11-08T16:57:11.697Z,101673.23
2017-11-08T16:59:39.304Z,101675.38
2017-11-08T17:02:06.895Z,101682.56
2017-11-08T17:04:34.515Z,101672.80
2017-11-08T17:07:02.087Z,101675.52
2017-11-08T17:09:29.885Z,101687.11
2017-11-08T17:11:57.475Z,101687.73
2017-11-08T17:14:25.055Z,101690.73
2017-11-08T17:16:52.655Z,101704.45
2017-11-08T17:19:20.229Z,101695.92
2017-11-08T17:21:47.848Z,101692.43
2017-11-08T17:24:15.436Z,101692.52
2017-11-08T17:26:43.048Z,101694.41
2017-11-08T17:29:14.579Z,101688.95
2017-11-08T17:31:43.244Z,101690.16
2017-11-08T17:34:10.864Z,101685.78
2017-11-08T17:36:38.438Z,101680.16
2017-11-08T17:39:06.058Z,101688.59
2017-11-08T17:41:36.952Z,101691.23
2017-11-08T17:44:18.827Z,101697.45
2017-11-08T17:46:46.593Z,101697.95
2017-11-08T17:49:14.208Z,101690.26
2017-11-08T17:51:41.780Z,101686.68
2017-11-08T17:54:09.350Z,101691.89
2017-11-08T17:56:37.178Z,101695.38
2017-11-08T17:59:04.757Z,101689.83
2017-11-08T18:01:32.371Z,101700.66
2017-11-08T18:03:59.938Z,101704.45
2017-11-08T18:06:27.503Z,101706.98
2017-11-08T18:08:55.087Z,101703.18
2017-11-08T18:11:22.651Z,101713.60
2017-11-08T18:13:50.229Z,101709.99
2017-11-08T18:16:17.908Z,101716.22
2017-11-08T18:18:45.571Z,101719.54
2017-11-08T18:21:13.142Z,101714.48
2017-11-08T18:23:40.761Z,101720.36
2017-11-08T18:26:09.454Z,101720.04
2017-11-08T18:28:37.770Z,101711.42
2017-11-08T18:31:05.343Z,101709.30
2017-11-08T18:33:33.839Z,101720.25
2017-11-08T18:36:01.411Z,101717.70
2017-11-08T18:38:29.037Z,101709.03
2017-11-08T18:40:56.647Z,101712.70
2017-11-08T18:43:24.259Z,101720.22
2017-11-08T18:45:51.827Z,101717.97
2017-11-08T18:48:19.398Z,101726.20
2017-11-08T18:50:46.972Z,101730.09
2017-11-08T18:53:14.559Z,101735.78
2017-11-08T18:55:42.136Z,101736.44
2017-11-08T18:58:10.479Z,101740.72
2017-11-08T19:00:38.053Z,101737.88
2017-11-08T19:03:05.677Z,101740.75
2017-11-08T19:05:33.259Z,101744.95
2017-11-08T19:08:00.940Z,101745.08
2017-11-08T19:10:28.519Z,101742.91
2017-11-08T19:12:56.175Z,101736.81
2017-11-08T19:15:23.751Z,101740.54
2017-11-08T19:17:51.334Z,101735.56
2017-11-08T19:20:18.960Z,101736.05
2017-11-08T19:22:46.531Z,101740.41
2017-11-08T19:25:14.104Z,101745.11
2017-11-08T19:27:41.761Z,101751.06
2017-11-08T19:30:09.335Z,101753.88
2017-11-08T19:32:37.734Z,101757.26
2017-11-08T19:35:05.393Z,101762.05
2017-11-08T19:37:32.959Z,101754.39
2017-11-08T19:40:00.538Z,101763.77
2017-11-08T19:42:28.114Z,101764.41
2017-11-08T19:44:55.792Z,101762.33
2017-11-08T19:47:23.407Z,101765.56
2017-11-08T19:49:51.057Z,101764.80
2017-11-08T19:52:18.679Z,101760.73
2017-11-08T19:54:46.288Z,101764.34
2017-11-08T19:57:13.902Z,101765.02
2017-11-08T19:59:41.509Z,101764.97
2017-11-08T20:02:09.250Z,101767.66
2017-11-08T20:04:36.819Z,101771.16
2017-11-08T20:07:04.443Z,101776.56
2017-11-08T20:09:32.272Z,101777.39
2017-11-08T20:11:59.873Z,101780.37
2017-11-08T20:14:27.482Z,101775.48
2017-11-08T20:16:55.056Z,101771.21
2017-11-08T20:19:22.696Z,101771.02
2017-11-08T20:21:50.300Z,101760.67
2017-11-08T20:24:17.892Z,101767.11
2017-11-08T20:26:45.550Z,101766.38
2017-11-08T20:29:13.213Z,101766.72
2017-11-08T20:31:40.833Z,101769.50
2017-11-08T20:34:08.441Z,101766.88
2017-11-08T20:36:36.007Z,101762.67
2017-11-08T20:39:04.246Z,101761.70
2017-11-08T20:41:32.560Z,101763.57
2017-11-08T20:44:00.284Z,101764.85
2017-11-08T20:46:27.876Z,101767.23
2017-11-08T20:48:55.442Z,101766.47
2017-11-08T20:51:23.398Z,101762.81
2017-11-08T20:53:50.960Z,101764.77
2017-11-08T20:56:18.576Z,101762.41
2017-11-08T20:58:46.185Z,101757.91
2017-11-08T21:01:13.751Z,101768.05
2017-11-08T21:03:41.326Z,101767.80
2017-11-08T21:06:08.899Z,101771.38
2017-11-08T21:08:36.999Z,101766.07
2017-11-08T21:11:04.581Z,101765.75
2017-11-08T21:13:32.196Z,101759.84
2017-11-08T21:15:59.791Z,101756.27
2017-11-08T21:18:27.354Z,101751.03
2017-11-08T21:20:54.992Z,101749.72
2017-11-08T21:23:22.570Z,101751.77
2017-11-08T21:25:50.176Z,101749.94
2017-11-08T21:28:17.741Z,101750.13
2017-11-08T21:30:45.316Z,101754.49
2017-11-08T21:33:12.928Z,101754.77
2017-11-08T21:35:40.516Z,101756.16
2017-11-08T21:38:08.087Z,101750.78
2017-11-08T21:40:35.659Z,101751.66
2017-11-08T21:43:03.227Z,101756.25
2017-11-08T21:45:30.803Z,101757.75
2017-11-08T21:47:58.402Z,101754.66
2017-11-08T21:50:26.405Z,101762.95
2017-11-08T21:52:54.199Z,101761.12
2017-11-08T21:55:21.803Z,101757.12
2017-11-08T21:57:49.364Z,101758.64
2017-11-08T22:00:16.944Z,101751.44
2017-11-08T22:02:44.564Z,101757.84
2017-11-08T22:05:12.143Z,101760.42
2017-11-08T22:07:39.733Z,101763.09
2017-11-08T22:10:07.615Z,101771.06
2017-11-08T22:12:35.249Z,101768.48
2017-11-08T22:15:02.834Z,101779.37
2017-11-08T22:17:30.403Z,101773.13
2017-11-08T22:19:57.975Z,101775.16
2017-11-08T22:22:26.383Z,101770.38
2017-11-08T22:24:53.995Z,101767.83
2017-11-08T22:27:21.560Z,101770.25
2017-11-08T22:29:49.124Z,101769.95
2017-11-08T22:32:16.695Z,101762.24
2017-11-08T22:34:44.327Z,101763.93
2017-11-08T22:37:11.930Z,101761.59
2017-11-08T22:39:39.556Z,101762.57
2017-11-08T22:42:07.122Z,101758.94
2017-11-08T22:44:34.689Z,101762.34
2017-11-08T22:47:02.345Z,101763.41
2017-11-08T22:49:30.072Z,101767.35
2017-11-08T22:51:57.731Z,101768.08
2017-11-08T22:54:25.302Z,101767.55
2017-11-08T22:56:52.917Z,101767.95
2017-11-08T22:59:21.306Z,101759.59
2017-11-08T23:01:48.879Z,101758.19
2017-11-08T23:04:16.445Z,101762.00
2017-11-08T23:06:45.267Z,101760.95
2017-11-08T23:09:12.876Z,101753.56
2017-11-08T23:11:40.761Z,101753.22
2017-11-08T23:14:08.379Z,101747.45
2017-11-08T23:16:35.984Z,101748.83
2017-11-08T23:19:03.596Z,101745.80
2017-11-08T23:21:31.160Z,101743.84
2017-11-08T23:23:58.726Z,101745.61
2017-11-08T23:26:26.298Z,101747.48
2017-11-08T23:28:53.872Z,101748.78
2017-11-08T23:31:21.445Z,101748.60
2017-11-08T23:33:49.019Z,101741.65
2017-11-08T23:36:16.586Z,101743.07
2017-11-08T23:38:44.155Z,101741.98
2017-11-08T23:41:12.530Z,101740.50
2017-11-08T23:43:40.105Z,101746.83
2017-11-08T23:46:07.676Z,101742.97
2017-11-08T23:48:35.278Z,101741.55
2017-11-08T23:51:04.747Z,101735.30
2017-11-08T23:53:32.363Z,101731.96
2017-11-08T23:56:01.835Z,101729.97
2017-11-08T23:58:29.435Z,101724.36
